Time;durP1;ratioP1;P1;durP2;ratioP2;P2;SDS_P1;SDS_P2;PMS_P1;PMS_P2;Temp;Humidity;BMP_temperature;BMP_pressure;BME280_temperature;BME280_humidity;BME280_pressure;Samples;Min_cycle;Max_cycle;Signal;HPM_P1;HPM_P2
2024/05/06 00:01:43;;;;;;;2.50;2.30;;;13.00;99.90;;;;;;6549416;21;20263;-82
2024/05/06 00:04:13;;;;;;;4.03;2.23;;;12.90;99.90;;;;;;6529631;22;20231;-82
2024/05/06 00:06:42;;;;;;;2.20;2.00;;;13.00;99.90;;;;;;6484890;22;20274;-82
2024/05/06 00:09:11;;;;;;;2.23;2.03;;;13.00;99.90;;;;;;6530145;22;20342;-82
2024/05/06 00:11:39;;;;;;;2.30;2.10;;;13.00;99.90;;;;;;6529885;22;20220;-82
2024/05/06 00:14:08;;;;;;;2.30;2.10;;;13.00;99.90;;;;;;6484862;22;20224;-82
2024/05/06 00:16:36;;;;;;;2.40;2.10;;;12.90;99.90;;;;;;6484560;22;20228;-82
2024/05/06 00:19:08;;;;;;;2.40;2.20;;;13.00;99.90;;;;;;6529722;22;20220;-82
2024/05/06 00:21:36;;;;;;;3.33;2.23;;;12.90;99.90;;;;;;6484642;22;20227;-82
2024/05/06 00:24:05;;;;;;;2.17;2.03;;;12.90;99.90;;;;;;6484656;22;20228;-82
2024/05/06 00:26:34;;;;;;;2.40;2.20;;;12.90;99.90;;;;;;6529525;22;20254;-82
2024/05/06 00:29:02;;;;;;;2.13;1.93;;;12.80;99.90;;;;;;6529383;22;20224;-82
2024/05/06 00:31:31;;;;;;;2.20;2.00;;;12.60;99.90;;;;;;6484554;22;20261;-82
2024/05/06 00:33:59;;;;;;;2.60;2.40;;;12.50;99.90;;;;;;6484574;22;20294;-81
2024/05/06 00:36:30;;;;;;;2.40;2.20;;;12.30;99.90;;;;;;6485019;22;20330;-82
2024/05/06 00:38:59;;;;;;;2.43;2.00;;;12.40;99.90;;;;;;6484732;22;20232;-81
2024/05/06 00:41:28;;;;;;;2.93;2.47;;;12.50;99.90;;;;;;6529545;22;20220;-81
2024/05/06 00:43:56;;;;;;;2.67;2.23;;;12.30;99.90;;;;;;6529624;22;20216;-81
2024/05/06 00:46:25;;;;;;;2.80;2.60;;;12.30;99.90;;;;;;6484589;22;20270;-81
2024/05/06 00:48:53;;;;;;;2.70;2.50;;;12.20;99.90;;;;;;6529540;22;20224;-82
2024/05/06 00:51:23;;;;;;;3.37;2.40;;;12.40;99.90;;;;;;6529558;22;20267;-82
2024/05/06 00:53:54;;;;;;;4.13;2.90;;;12.30;99.90;;;;;;6529420;22;20224;-82
2024/05/06 00:56:23;;;;;;;3.50;3.17;;;12.20;99.90;;;;;;6484687;22;20243;-81
2024/05/06 00:58:54;;;;;;;3.27;2.97;;;12.20;99.90;;;;;;6484410;22;20228;-81
2024/05/06 01:01:23;;;;;;;3.00;2.80;;;12.40;99.90;;;;;;6529258;21;20228;-81
2024/05/06 01:03:53;;;;;;;4.63;3.20;;;12.60;99.90;;;;;;6529218;22;20216;-81
2024/05/06 01:06:21;;;;;;;2.40;2.20;;;12.60;99.90;;;;;;6529751;22;20220;-81
2024/05/06 01:08:50;;;;;;;2.60;2.40;;;12.50;99.90;;;;;;6530561;22;20258;-82
2024/05/06 01:11:22;;;;;;;3.97;2.70;;;12.60;99.90;;;;;;6531412;22;20216;-82
2024/05/06 01:13:51;;;;;;;3.90;2.57;;;12.60;99.90;;;;;;6486670;22;20228;-82
2024/05/06 01:16:19;;;;;;;4.13;2.23;;;12.60;99.90;;;;;;6486285;22;20224;-81
2024/05/06 01:18:47;;;;;;;3.47;2.57;;;12.60;99.90;;;;;;6531262;22;20255;-81
2024/05/06 01:21:21;;;;;;;2.93;2.23;;;12.60;99.90;;;;;;6486361;22;20227;-82
2024/05/06 01:23:52;;;;;;;2.43;2.20;;;12.70;99.90;;;;;;6486555;22;20326;-82
2024/05/06 01:26:21;;;;;;;3.73;2.13;;;12.70;99.90;;;;;;6531098;22;20267;-82
2024/05/06 01:28:49;;;;;;;2.93;2.27;;;12.70;99.90;;;;;;6486429;22;20271;-82
2024/05/06 01:31:18;;;;;;;2.50;2.07;;;12.60;99.90;;;;;;6531254;22;20272;-82
2024/05/06 01:33:46;;;;;;;2.40;2.20;;;12.60;99.90;;;;;;6531137;22;20212;-82
2024/05/06 01:36:15;;;;;;;4.80;2.63;;;12.50;99.90;;;;;;6486420;22;20267;-82
2024/05/06 01:38:44;;;;;;;2.43;2.23;;;12.50;99.90;;;;;;6485910;22;20231;-82
2024/05/06 01:41:15;;;;;;;2.87;2.40;;;12.50;99.90;;;;;;6486207;22;20239;-82
2024/05/06 01:43:43;;;;;;;2.60;2.40;;;12.50;99.90;;;;;;6531425;22;20258;-81
2024/05/06 01:46:12;;;;;;;5.30;2.20;;;12.50;99.90;;;;;;6486599;22;20269;-81
2024/05/06 01:48:41;;;;;;;2.93;2.10;;;12.50;99.90;;;;;;6530845;22;20270;-81
2024/05/06 01:51:09;;;;;;;3.00;2.60;;;12.50;99.90;;;;;;6528831;22;20227;-81
2024/05/06 01:53:39;;;;;;;2.77;2.57;;;12.40;99.90;;;;;;6486232;22;20232;-81
2024/05/06 01:56:08;;;;;;;3.50;2.07;;;12.40;99.90;;;;;;6530961;22;20239;-81
2024/05/06 01:58:40;;;;;;;2.50;2.30;;;12.50;99.90;;;;;;6530969;22;20216;-81
2024/05/06 02:01:08;;;;;;;2.40;2.20;;;12.50;99.90;;;;;;6531321;21;20224;-81
2024/05/06 02:03:41;;;;;;;2.80;2.30;;;12.60;99.90;;;;;;6531311;22;20251;-81
2024/05/06 02:06:10;;;;;;;4.57;2.43;;;12.60;99.90;;;;;;6531319;22;20268;-81
2024/05/06 02:08:38;;;;;;;2.30;2.10;;;12.60;99.90;;;;;;6530759;22;20228;-81
2024/05/06 02:11:06;;;;;;;3.90;2.30;;;12.70;99.90;;;;;;6530841;22;20254;-81
2024/05/06 02:13:35;;;;;;;2.63;2.30;;;12.70;99.90;;;;;;6485728;22;20251;-81
2024/05/06 02:16:07;;;;;;;2.77;2.47;;;12.60;99.90;;;;;;6485832;22;20224;-81
2024/05/06 02:18:36;;;;;;;2.50;2.30;;;12.60;99.90;;;;;;6531575;22;20218;-81
2024/05/06 02:21:04;;;;;;;3.00;2.80;;;12.50;99.90;;;;;;6485353;22;20275;-82
2024/05/06 02:23:33;;;;;;;4.87;2.97;;;12.60;99.90;;;;;;6530569;22;20216;-82
2024/05/06 02:26:01;;;;;;;2.77;2.57;;;12.50;99.90;;;;;;6485584;22;20262;-82
2024/05/06 02:28:30;;;;;;;2.83;2.53;;;12.40;99.90;;;;;;6530725;22;20263;-82
2024/05/06 02:30:58;;;;;;;2.87;2.53;;;12.50;99.90;;;;;;6485771;22;20231;-82
2024/05/06 02:33:29;;;;;;;2.63;2.43;;;12.50;99.90;;;;;;6485836;22;20231;-82
2024/05/06 02:35:57;;;;;;;3.40;3.03;;;12.40;99.90;;;;;;6530282;22;20251;-82
2024/05/06 02:38:26;;;;;;;3.57;2.70;;;12.50;99.90;;;;;;6530900;22;20263;-81
2024/05/06 02:40:54;;;;;;;3.00;2.70;;;12.50;99.90;;;;;;6530652;22;20217;-82
2024/05/06 02:43:23;;;;;;;2.90;2.63;;;12.40;99.90;;;;;;6530832;22;20216;-81
2024/05/06 02:45:51;;;;;;;2.60;2.40;;;12.40;99.90;;;;;;6530613;22;20246;-81
2024/05/06 02:48:20;;;;;;;3.17;2.60;;;12.60;99.90;;;;;;6485176;22;20335;-81
2024/05/06 02:50:51;;;;;;;2.80;2.50;;;12.40;99.90;;;;;;6530317;22;20247;-81
2024/05/06 02:53:20;;;;;;;2.80;2.57;;;12.50;99.90;;;;;;6530645;22;20224;-81
2024/05/06 02:55:48;;;;;;;5.27;2.90;;;12.50;99.90;;;;;;6530244;22;20228;-82
2024/05/06 02:58:17;;;;;;;3.83;2.73;;;12.40;99.90;;;;;;6530233;22;20216;-81
2024/05/06 03:00:46;;;;;;;2.87;2.67;;;12.30;99.90;;;;;;6502018;21;20278;-81
2024/05/06 03:03:14;;;;;;;3.27;2.70;;;12.30;99.90;;;;;;6580292;21;20230;-81
2024/05/06 03:05:43;;;;;;;3.57;3.13;;;12.30;99.90;;;;;;6582407;21;20265;-81
2024/05/06 03:08:14;;;;;;;4.23;2.70;;;12.30;99.90;;;;;;6580203;21;20258;-81
2024/05/06 03:10:43;;;;;;;2.70;2.50;;;12.20;99.90;;;;;;6582052;21;20230;-81
2024/05/06 03:13:12;;;;;;;3.80;2.83;;;12.30;99.90;;;;;;6582212;21;20266;-81
2024/05/06 03:15:42;;;;;;;3.27;2.73;;;12.30;99.90;;;;;;6580349;21;20226;-81
2024/05/06 03:18:11;;;;;;;3.20;2.90;;;12.30;99.90;;;;;;6582325;21;20340;-81
2024/05/06 03:20:39;;;;;;;3.00;2.80;;;12.20;99.90;;;;;;6582670;21;20218;-82
2024/05/06 03:23:08;;;;;;;4.83;2.80;;;12.40;99.90;;;;;;6582432;21;20219;-81
2024/05/06 03:25:39;;;;;;;2.80;2.60;;;12.20;99.90;;;;;;6582284;21;20270;-82
2024/05/06 03:28:08;;;;;;;2.73;2.53;;;12.40;99.90;;;;;;6583104;21;20265;-81
2024/05/06 03:30:36;;;;;;;2.57;2.30;;;12.30;99.90;;;;;;6580147;21;20239;-82
2024/05/06 03:33:05;;;;;;;2.73;2.50;;;12.20;99.90;;;;;;6582207;21;20219;-82
2024/05/06 03:35:34;;;;;;;2.80;2.60;;;12.30;99.90;;;;;;6580142;21;20261;-81
2024/05/06 03:38:02;;;;;;;2.80;2.60;;;12.40;99.90;;;;;;6581962;21;20265;-81
2024/05/06 03:40:30;;;;;;;3.33;3.03;;;12.30;99.90;;;;;;6582795;21;20253;-82
2024/05/06 03:43:02;;;;;;;3.23;2.93;;;12.30;99.90;;;;;;6582074;21;20215;-82
2024/05/06 03:45:30;;;;;;;3.57;2.70;;;12.40;99.90;;;;;;6580099;21;20291;-81
2024/05/06 03:47:59;;;;;;;3.23;2.93;;;12.30;99.90;;;;;;6582267;21;20215;-81
2024/05/06 03:50:28;;;;;;;3.07;2.77;;;12.30;99.90;;;;;;6579735;21;20231;-82
2024/05/06 03:52:57;;;;;;;3.03;2.73;;;12.30;99.90;;;;;;6579966;21;20226;-82
2024/05/06 03:55:25;;;;;;;3.43;2.87;;;12.30;99.90;;;;;;6582026;21;20269;-81
2024/05/06 03:57:54;;;;;;;3.53;2.90;;;12.30;99.90;;;;;;6582333;21;20214;-82
2024/05/06 04:00:25;;;;;;;3.43;3.00;;;12.20;99.90;;;;;;6577689;21;20223;-82
2024/05/06 04:02:53;;;;;;;5.27;2.93;;;12.10;99.90;;;;;;6484924;22;20263;-82
2024/05/06 04:05:22;;;;;;;3.03;2.73;;;12.10;99.90;;;;;;6529806;22;20220;-82
2024/05/06 04:07:52;;;;;;;4.90;3.07;;;12.10;99.90;;;;;;6485093;22;20270;-81
2024/05/06 04:10:22;;;;;;;4.43;2.93;;;12.10;99.90;;;;;;6529751;22;20220;-81
2024/05/06 04:12:51;;;;;;;2.70;2.50;;;12.10;99.90;;;;;;6529594;22;20280;-81
2024/05/06 04:15:19;;;;;;;3.37;2.93;;;12.10;99.90;;;;;;6530130;22;20223;-81
2024/05/06 04:17:50;;;;;;;3.27;2.97;;;12.20;99.90;;;;;;6529967;22;20219;-82
2024/05/06 04:20:19;;;;;;;3.20;2.87;;;12.30;99.90;;;;;;6484816;22;20228;-81
2024/05/06 04:22:47;;;;;;;3.23;2.87;;;12.20;99.90;;;;;;6529657;22;20216;-82
2024/05/06 04:28:01;;;;;;;4.87;3.23;;;12.20;99.90;;;;;;6484832;22;20232;-81
2024/05/06 04:30:30;;;;;;;5.50;2.70;;;12.30;99.90;;;;;;6484804;22;20231;-82
2024/05/06 04:33:01;;;;;;;4.57;2.93;;;12.30;99.90;;;;;;6529569;22;20267;-81
2024/05/06 04:35:29;;;;;;;4.70;3.37;;;12.30;99.90;;;;;;6529649;22;20215;-81
2024/05/06 04:37:58;;;;;;;4.20;3.20;;;12.30;99.90;;;;;;6529480;22;20267;-82
2024/05/06 04:40:26;;;;;;;3.13;2.93;;;12.20;99.90;;;;;;6529950;22;20224;-82
2024/05/06 04:42:55;;;;;;;3.13;2.93;;;12.20;99.90;;;;;;6529490;22;20216;-82
2024/05/06 04:45:24;;;;;;;4.37;3.03;;;12.10;99.90;;;;;;6531743;22;20216;-82
2024/05/06 04:47:52;;;;;;;5.87;3.20;;;12.20;99.90;;;;;;6486529;22;20344;-81
2024/05/06 04:50:23;;;;;;;4.00;3.07;;;12.20;99.90;;;;;;6486541;22;20329;-79
2024/05/06 04:52:52;;;;;;;5.90;3.27;;;12.30;99.90;;;;;;6486500;22;20232;-79
2024/05/06 04:55:21;;;;;;;4.60;3.30;;;12.20;99.90;;;;;;6531243;22;20255;-78
2024/05/06 04:57:50;;;;;;;3.47;3.17;;;12.20;99.90;;;;;;6486421;22;20232;-78
2024/05/06 05:00:18;;;;;;;4.03;3.63;;;12.20;99.90;;;;;;6486274;21;20240;-78
2024/05/06 05:02:47;;;;;;;3.73;3.43;;;12.20;99.90;;;;;;6486273;22;20251;-78
2024/05/06 05:05:15;;;;;;;4.60;3.83;;;12.20;99.90;;;;;;6486645;22;20232;-79
2024/05/06 05:07:46;;;;;;;4.90;4.33;;;12.10;99.90;;;;;;6486567;22;20263;-78
2024/05/06 05:10:15;;;;;;;5.27;4.50;;;11.90;99.90;;;;;;6531390;22;20216;-79
2024/05/06 05:12:43;;;;;;;4.83;4.10;;;11.90;99.90;;;;;;6531318;22;20264;-78
2024/05/06 05:15:12;;;;;;;4.30;3.90;;;11.80;99.90;;;;;;6531182;22;20255;-78
2024/05/06 05:17:41;;;;;;;4.30;3.53;;;11.80;99.90;;;;;;6531254;22;20223;-78
2024/05/06 05:20:10;;;;;;;4.27;3.87;;;11.80;99.90;;;;;;6531529;22;20216;-78
2024/05/06 05:22:39;;;;;;;3.73;3.33;;;11.90;99.90;;;;;;6531477;22;20220;-78
2024/05/06 05:25:10;;;;;;;3.60;3.30;;;11.80;99.90;;;;;;6530722;22;20228;-78
2024/05/06 05:27:38;;;;;;;5.30;4.77;;;11.80;99.90;;;;;;6486218;22;20234;-79
2024/05/06 05:30:08;;;;;;;4.13;3.73;;;11.80;99.90;;;;;;6531093;22;20287;-78
2024/05/06 05:32:37;;;;;;;6.50;5.90;;;12.00;99.90;;;;;;6486107;22;20228;-78
2024/05/06 05:35:06;;;;;;;4.27;3.83;;;11.90;99.90;;;;;;6486162;22;20228;-79
2024/05/06 05:37:34;;;;;;;4.43;4.03;;;12.10;99.90;;;;;;6486072;22;20317;-79
2024/05/06 05:40:03;;;;;;;4.73;3.67;;;12.20;99.90;;;;;;6485926;22;20250;-79
2024/05/06 05:42:36;;;;;;;5.00;4.33;;;12.10;99.90;;;;;;6485992;22;20275;-79
2024/05/06 05:45:04;;;;;;;7.40;4.27;;;12.10;99.90;;;;;;6531413;22;20219;-79
2024/05/06 05:47:33;;;;;;;5.80;4.40;;;12.00;99.90;;;;;;6486102;22;20271;-79
2024/05/06 05:50:01;;;;;;;4.23;3.83;;;11.90;99.90;;;;;;6531475;22;20263;-80
2024/05/06 05:52:30;;;;;;;4.60;4.20;;;12.00;99.90;;;;;;6531267;22;20270;-79
2024/05/06 05:54:59;;;;;;;6.23;4.00;;;11.90;99.90;;;;;;6530542;22;20263;-79
2024/05/06 05:57:27;;;;;;;4.00;3.60;;;12.00;99.90;;;;;;6485942;22;20258;-80
2024/05/06 05:59:58;;;;;;;4.53;4.07;;;11.90;99.90;;;;;;6530689;22;20278;-80
2024/05/06 06:02:27;;;;;;;4.13;3.73;;;11.80;99.90;;;;;;6530573;21;20228;-79
2024/05/06 06:04:56;;;;;;;4.63;4.00;;;11.90;99.90;;;;;;6485566;22;20262;-79
2024/05/06 06:07:25;;;;;;;4.53;3.90;;;11.90;99.90;;;;;;6530574;22;20223;-80
2024/05/06 06:09:53;;;;;;;4.43;3.80;;;11.90;99.90;;;;;;6485980;22;20257;-80
2024/05/06 06:12:22;;;;;;;5.10;4.60;;;11.90;99.90;;;;;;6485945;22;20255;-80
2024/05/06 06:14:50;;;;;;;4.80;4.40;;;11.90;99.90;;;;;;6530894;22;20259;-81
2024/05/06 06:17:22;;;;;;;5.83;4.33;;;12.10;99.90;;;;;;6530739;22;20269;-81
2024/05/06 06:19:50;;;;;;;4.43;4.03;;;12.20;99.90;;;;;;6485782;22;20266;-81
2024/05/06 06:22:19;;;;;;;4.27;3.87;;;12.00;99.90;;;;;;6530689;22;20216;-81
2024/05/06 06:24:48;;;;;;;5.33;4.30;;;12.00;99.90;;;;;;6485768;22;20292;-81
2024/05/06 06:27:16;;;;;;;4.17;3.77;;;11.90;99.90;;;;;;6530762;22;20227;-81
2024/05/06 06:29:50;;;;;;;3.87;3.47;;;11.90;99.90;;;;;;6485797;22;20286;-81
2024/05/06 06:32:21;;;;;;;4.87;4.40;;;11.90;99.90;;;;;;6531138;22;20223;-82
2024/05/06 06:34:49;;;;;;;5.50;4.57;;;12.10;99.90;;;;;;6485644;22;20228;-81
2024/05/06 06:37:18;;;;;;;6.13;4.60;;;12.00;99.90;;;;;;6529962;22;20270;-81
2024/05/06 06:39:46;;;;;;;5.23;4.43;;;12.00;99.90;;;;;;6485581;22;20271;-81
2024/05/06 06:42:15;;;;;;;5.00;4.57;;;12.00;99.90;;;;;;6485855;22;20232;-81
2024/05/06 06:44:43;;;;;;;4.67;4.17;;;12.00;99.90;;;;;;6485616;22;20227;-81
2024/05/06 06:47:12;;;;;;;4.87;3.93;;;12.00;99.90;;;;;;6531068;22;20212;-81
2024/05/06 06:49:43;;;;;;;6.33;3.73;;;12.10;99.90;;;;;;6530672;22;20224;-80
2024/05/06 06:52:13;;;;;;;5.63;4.27;;;12.10;99.90;;;;;;6531680;22;20216;-80
2024/05/06 06:54:41;;;;;;;4.60;4.20;;;12.00;99.90;;;;;;6530653;22;20220;-80
2024/05/06 06:57:10;;;;;;;4.70;4.30;;;11.80;99.90;;;;;;6530085;22;20231;-80
2024/05/06 06:59:38;;;;;;;4.33;3.93;;;11.80;99.90;;;;;;6484977;22;20228;-80
2024/05/06 07:02:07;;;;;;;4.83;4.33;;;12.00;99.90;;;;;;6530332;21;20277;-81
2024/05/06 07:04:35;;;;;;;4.87;4.37;;;12.10;99.90;;;;;;6530118;22;20218;-81
2024/05/06 07:07:07;;;;;;;5.23;4.50;;;12.20;99.90;;;;;;6528348;22;20251;-81
2024/05/06 07:09:35;;;;;;;4.63;4.23;;;12.00;99.90;;;;;;6485523;22;20228;-80
2024/05/06 07:12:03;;;;;;;4.50;4.10;;;12.00;99.90;;;;;;6530208;22;20220;-80
2024/05/06 07:14:32;;;;;;;4.40;4.00;;;12.00;99.90;;;;;;6485487;22;20227;-80
2024/05/06 07:17:00;;;;;;;5.63;4.63;;;12.00;99.90;;;;;;6530158;22;20216;-80
2024/05/06 07:19:29;;;;;;;5.60;5.10;;;12.10;99.90;;;;;;6485446;22;20278;-80
2024/05/06 07:21:57;;;;;;;4.87;4.40;;;12.10;99.90;;;;;;6485094;22;20258;-80
2024/05/06 07:24:28;;;;;;;4.90;4.40;;;12.00;99.90;;;;;;6529865;22;20266;-80
2024/05/06 07:26:57;;;;;;;4.77;4.33;;;12.20;99.90;;;;;;6530065;22;20266;-81
2024/05/06 07:29:27;;;;;;;6.33;4.80;;;12.10;99.90;;;;;;6485170;22;20228;-81
2024/05/06 07:31:55;;;;;;;5.30;4.80;;;12.40;99.90;;;;;;6529960;22;20224;-81
2024/05/06 07:34:24;;;;;;;5.83;4.90;;;12.20;99.90;;;;;;6529923;22;20220;-81
2024/05/06 07:36:52;;;;;;;4.63;4.23;;;12.40;99.90;;;;;;6485242;22;20271;-81
2024/05/06 07:39:21;;;;;;;5.37;4.87;;;12.40;99.90;;;;;;6530371;22;20216;-81
2024/05/06 07:41:52;;;;;;;4.70;4.30;;;12.50;99.90;;;;;;6530123;22;20338;-81
2024/05/06 07:44:21;;;;;;;4.63;4.23;;;12.60;99.90;;;;;;6484963;22;20232;-81
2024/05/06 07:46:50;;;;;;;4.93;4.40;;;12.60;99.90;;;;;;6529981;22;20329;-81
2024/05/06 07:49:19;;;;;;;7.43;4.57;;;12.70;99.90;;;;;;6530284;22;20279;-81
2024/05/06 07:51:47;;;;;;;6.50;4.57;;;12.80;99.90;;;;;;6484834;22;20274;-81
2024/05/06 07:54:16;;;;;;;5.73;4.97;;;12.80;99.90;;;;;;6485008;22;20232;-81
2024/05/06 07:56:44;;;;;;;4.30;3.90;;;12.90;99.90;;;;;;6529966;22;20292;-81
2024/05/06 07:59:16;;;;;;;4.43;4.03;;;12.90;99.90;;;;;;6484700;22;20223;-81
2024/05/06 08:01:44;;;;;;;4.80;4.30;;;12.70;99.90;;;;;;6484748;22;20286;-81
2024/05/06 08:04:18;;;;;;;4.53;4.13;;;12.80;99.90;;;;;;6484768;22;20228;-81
2024/05/06 08:06:47;;;;;;;6.40;4.37;;;12.80;99.90;;;;;;6484567;22;20258;-81
2024/05/06 08:09:15;;;;;;;5.00;4.47;;;12.90;99.90;;;;;;6484852;22;20262;-81
2024/05/06 08:11:44;;;;;;;5.60;4.90;;;13.00;99.90;;;;;;6529669;22;20216;-81
2024/05/06 08:14:12;;;;;;;4.40;4.00;;;12.90;99.90;;;;;;6484686;22;20272;-81
2024/05/06 08:16:44;;;;;;;5.37;4.80;;;13.00;99.90;;;;;;6529664;22;20267;-81
2024/05/06 08:19:12;;;;;;;3.87;3.57;;;13.10;99.90;;;;;;6486268;22;20297;-81
2024/05/06 08:21:41;;;;;;;4.07;3.67;;;13.00;99.90;;;;;;6487367;22;20227;-82
2024/05/06 08:24:09;;;;;;;4.83;4.10;;;12.90;99.90;;;;;;6486987;22;20258;-81
2024/05/06 08:26:38;;;;;;;5.77;4.23;;;12.80;99.90;;;;;;6487140;22;20231;-81
2024/05/06 08:29:08;;;;;;;5.87;4.10;;;12.80;99.90;;;;;;6487410;22;20242;-81
2024/05/06 08:31:36;;;;;;;4.40;4.00;;;13.00;99.90;;;;;;6531540;22;20216;-81
2024/05/06 08:34:07;;;;;;;4.80;4.30;;;12.80;99.90;;;;;;6532215;22;20329;-81
2024/05/06 08:36:36;;;;;;;4.60;4.20;;;12.80;99.90;;;;;;6487200;22;20232;-81
2024/05/06 08:39:05;;;;;;;4.67;4.27;;;12.90;99.90;;;;;;6487327;22;20220;-81
2024/05/06 08:41:33;;;;;;;4.80;4.40;;;12.90;99.90;;;;;;6531591;22;20262;-80
2024/05/06 08:44:03;;;;;;;4.77;4.27;;;12.90;99.90;;;;;;6531868;22;20258;-81
2024/05/06 08:46:33;;;;;;;5.20;4.23;;;13.10;99.90;;;;;;6486822;22;20231;-80
2024/05/06 08:49:04;;;;;;;4.70;4.30;;;13.00;99.90;;;;;;6487021;22;20262;-81
2024/05/06 08:51:36;;;;;;;4.63;3.63;;;13.10;99.90;;;;;;6531541;22;20275;-81
2024/05/06 08:54:04;;;;;;;5.13;4.20;;;13.20;99.90;;;;;;6486806;22;20259;-81
2024/05/06 08:56:38;;;;;;;4.30;3.90;;;13.20;99.90;;;;;;6531835;22;20258;-81
2024/05/06 08:59:07;;;;;;;4.17;3.77;;;13.30;99.90;;;;;;6531763;22;20224;-81
2024/05/06 09:01:36;;;;;;;4.23;3.83;;;13.40;99.90;;;;;;6531868;21;20271;-81
2024/05/06 09:04:05;;;;;;;4.30;3.90;;;13.40;99.90;;;;;;6486594;22;20228;-81
2024/05/06 09:06:36;;;;;;;4.30;3.90;;;13.50;99.90;;;;;;6531323;22;20220;-81
2024/05/06 09:09:04;;;;;;;4.07;3.67;;;13.60;99.90;;;;;;6486854;22;20274;-82
2024/05/06 09:11:37;;;;;;;3.70;3.40;;;13.70;99.90;;;;;;6486609;22;20262;-82
2024/05/06 09:14:06;;;;;;;3.80;3.50;;;13.70;99.90;;;;;;6486531;22;20266;-81
2024/05/06 09:16:35;;;;;;;3.90;3.50;;;13.70;99.90;;;;;;6531276;22;20217;-81
2024/05/06 09:19:04;;;;;;;3.83;3.47;;;13.70;99.90;;;;;;6531348;22;20267;-81
2024/05/06 09:21:32;;;;;;;4.20;3.80;;;13.80;99.90;;;;;;6486431;22;20232;-81
2024/05/06 09:24:03;;;;;;;3.90;3.50;;;13.70;99.90;;;;;;6531188;22;20216;-81
2024/05/06 09:26:33;;;;;;;3.80;3.50;;;13.60;99.90;;;;;;6531415;22;20216;-81
2024/05/06 09:29:02;;;;;;;3.93;3.53;;;13.60;99.90;;;;;;6486548;22;20255;-81
2024/05/06 09:31:31;;;;;;;3.53;3.23;;;13.60;99.90;;;;;;6486493;22;20309;-81
2024/05/06 09:34:00;;;;;;;3.17;2.90;;;13.70;99.90;;;;;;6486195;22;20236;-81
2024/05/06 09:36:29;;;;;;;3.83;3.30;;;13.80;99.90;;;;;;6486505;22;20259;-80
2024/05/06 09:38:58;;;;;;;3.80;3.30;;;13.80;99.90;;;;;;6529252;22;20232;-81
2024/05/06 09:41:33;;;;;;;3.50;3.20;;;14.00;99.90;;;;;;6531185;22;20212;-81
2024/05/06 09:44:03;;;;;;;4.07;3.23;;;14.10;99.90;;;;;;6531759;22;20216;-81
2024/05/06 09:46:32;;;;;;;3.03;2.83;;;14.20;99.90;;;;;;6486682;22;20255;-82
2024/05/06 09:49:02;;;;;;;3.10;2.90;;;14.20;99.90;;;;;;6487505;22;20228;-82
2024/05/06 09:51:32;;;;;;;3.10;2.90;;;14.20;99.90;;;;;;6486386;22;20228;-82
2024/05/06 09:54:01;;;;;;;3.53;3.13;;;14.10;99.90;;;;;;6487251;22;20228;-81
2024/05/06 09:56:34;;;;;;;4.43;2.80;;;14.10;99.90;;;;;;6533278;22;20228;-81
2024/05/06 09:59:03;;;;;;;2.83;2.63;;;14.00;99.90;;;;;;6533707;22;20228;-82
2024/05/06 10:01:32;;;;;;;2.83;2.63;;;14.10;99.90;;;;;;6538742;21;20243;-81
2024/05/06 10:04:01;;;;;;;2.77;2.50;;;14.20;99.90;;;;;;6585516;21;20246;-81
2024/05/06 10:06:30;;;;;;;2.70;2.47;;;14.20;99.90;;;;;;6584512;21;20256;-80
2024/05/06 10:08:58;;;;;;;2.90;2.70;;;14.20;99.90;;;;;;6581832;21;20281;-81
2024/05/06 10:11:27;;;;;;;3.00;2.47;;;14.30;99.90;;;;;;6583931;21;20215;-80
2024/05/06 10:13:58;;;;;;;2.57;2.37;;;14.40;99.90;;;;;;6580888;21;20257;-81
2024/05/06 10:16:28;;;;;;;2.77;2.47;;;14.50;99.90;;;;;;6584115;21;20214;-81
2024/05/06 10:18:59;;;;;;;2.60;2.40;;;14.60;99.90;;;;;;6581434;21;20243;-81
2024/05/06 10:21:36;;;;;;;2.20;2.00;;;14.60;99.90;;;;;;6581200;21;20346;-81
2024/05/06 10:24:10;;;;;;;2.00;1.80;;;14.60;99.90;;;;;;6581370;21;20249;-80
2024/05/06 10:26:44;;;;;;;2.07;1.97;;;14.70;99.90;;;;;;6583040;21;20219;-82
2024/05/06 10:29:18;;;;;;;1.93;1.83;;;14.80;99.90;;;;;;6580851;21;20262;-81
2024/05/06 10:31:46;;;;;;;1.80;1.70;;;15.00;99.90;;;;;;6583390;21;20215;-82
2024/05/06 10:34:19;;;;;;;2.10;1.90;;;15.10;99.90;;;;;;6580880;21;20231;-82
2024/05/06 10:36:54;;;;;;;1.97;1.87;;;15.20;99.90;;;;;;6582929;21;20282;-82
2024/05/06 10:39:24;;;;;;;1.80;1.70;;;15.20;99.90;;;;;;6580937;21;20304;-82
2024/05/06 10:41:53;;;;;;;1.87;1.77;;;15.40;99.90;;;;;;6582487;21;20250;-82
2024/05/06 10:44:24;;;;;;;1.80;1.70;;;15.80;99.90;;;;;;6583121;21;20281;-82
2024/05/06 10:46:52;;;;;;;1.73;1.60;;;15.90;99.90;;;;;;6580737;21;20231;-82
2024/05/06 10:49:21;;;;;;;1.63;1.53;;;16.00;99.90;;;;;;6580563;21;20230;-82
2024/05/06 10:51:50;;;;;;;1.63;1.53;;;15.90;99.90;;;;;;6580678;21;20231;-82
2024/05/06 10:54:18;;;;;;;4.70;1.80;;;16.00;99.90;;;;;;6582833;21;20265;-82
2024/05/06 10:56:47;;;;;;;2.37;1.60;;;16.20;99.90;;;;;;6582559;21;20227;-82
2024/05/06 10:59:15;;;;;;;1.50;1.40;;;16.30;99.90;;;;;;6580449;21;20258;-82
2024/05/06 11:01:46;;;;;;;1.50;1.40;;;16.50;99.90;;;;;;6580389;21;20289;-82
2024/05/06 11:04:15;;;;;;;1.43;1.33;;;16.40;99.90;;;;;;6580933;21;20265;-83
2024/05/06 11:06:44;;;;;;;1.90;1.70;;;16.60;99.90;;;;;;6582747;21;20266;-83
2024/05/06 11:09:13;;;;;;;1.47;1.37;;;16.70;99.90;;;;;;6580709;21;20269;-83
2024/05/06 11:11:41;;;;;;;1.77;1.53;;;16.70;99.90;;;;;;6580717;21;20258;-83
2024/05/06 11:14:10;;;;;;;1.53;1.43;;;17.00;99.90;;;;;;6581033;21;20264;-83
2024/05/06 11:16:39;;;;;;;1.97;1.40;;;17.20;99.90;;;;;;6580899;21;20239;-83
2024/05/06 11:19:10;;;;;;;1.70;1.60;;;17.20;99.90;;;;;;6580372;21;20246;-84
2024/05/06 11:21:39;;;;;;;1.53;1.43;;;17.20;99.90;;;;;;6580798;21;20226;-84
2024/05/06 11:24:09;;;;;;;1.47;1.33;;;17.30;99.90;;;;;;6580399;21;20273;-84
2024/05/06 11:26:39;;;;;;;1.70;1.53;;;17.60;99.90;;;;;;6582509;21;20250;-84
2024/05/06 11:29:07;;;;;;;1.40;1.30;;;17.70;99.90;;;;;;6580369;21;20514;-84
2024/05/06 11:31:36;;;;;;;1.20;1.10;;;17.90;99.90;;;;;;6582154;21;20215;-84
2024/05/06 11:34:04;;;;;;;1.57;1.37;;;17.90;99.90;;;;;;6580636;21;20231;-84
2024/05/06 11:36:35;;;;;;;1.77;1.30;;;17.70;99.90;;;;;;6580355;21;20262;-84
2024/05/06 11:39:04;;;;;;;3.13;1.50;;;17.70;99.90;;;;;;6580273;21;20258;-85
2024/05/06 11:41:33;;;;;;;1.43;1.33;;;18.30;99.90;;;;;;6582119;21;20371;-84
2024/05/06 11:44:01;;;;;;;1.37;1.10;;;18.40;99.90;;;;;;6580005;21;20332;-85
2024/05/06 11:46:30;;;;;;;1.50;1.40;;;18.50;99.90;;;;;;6582202;21;20219;-85
2024/05/06 11:48:59;;;;;;;1.40;1.17;;;18.80;99.90;;;;;;6582560;21;20215;-85
2024/05/06 11:51:27;;;;;;;1.60;1.40;;;18.80;99.90;;;;;;6580273;21;20274;-85
2024/05/06 11:53:58;;;;;;;1.30;1.20;;;18.50;99.90;;;;;;6579552;21;20249;-85
2024/05/06 11:56:27;;;;;;;1.67;1.30;;;18.10;99.90;;;;;;6580056;21;20269;-85
2024/05/06 11:58:56;;;;;;;1.40;1.30;;;17.90;99.90;;;;;;6580138;21;20230;-85
2024/05/06 12:01:26;;;;;;;1.50;1.30;;;17.90;99.90;;;;;;6561047;21;20270;-85
2024/05/06 12:03:56;;;;;;;1.07;1.00;;;18.10;99.90;;;;;;6484747;22;20274;-85
2024/05/06 12:06:25;;;;;;;5.07;1.30;;;18.50;99.90;;;;;;6485099;22;20249;-85
2024/05/06 12:08:53;;;;;;;1.40;1.30;;;18.40;99.90;;;;;;6530080;22;20216;-85
2024/05/06 12:11:25;;;;;;;1.23;1.13;;;19.00;99.90;;;;;;6484553;22;20270;-85
2024/05/06 12:13:53;;;;;;;1.47;1.20;;;18.70;99.90;;;;;;6529907;22;20220;-85
2024/05/06 12:16:22;;;;;;;1.40;1.30;;;18.00;99.90;;;;;;6529617;22;20216;-85
2024/05/06 12:18:50;;;;;;;1.90;1.40;;;17.80;99.90;;;;;;6484629;22;20283;-85
2024/05/06 12:21:19;;;;;;;1.50;1.40;;;17.60;99.90;;;;;;6529700;22;20216;-85
2024/05/06 12:23:48;;;;;;;1.70;1.60;;;18.00;99.90;;;;;;6529678;22;20267;-85
2024/05/06 12:26:16;;;;;;;1.23;1.13;;;18.00;99.90;;;;;;6529676;22;20288;-85
2024/05/06 12:28:48;;;;;;;1.50;1.40;;;17.90;99.90;;;;;;6485044;22;20388;-85
2024/05/06 12:31:17;;;;;;;2.03;1.50;;;18.00;99.90;;;;;;6529746;22;20216;-85
2024/05/06 12:33:45;;;;;;;1.50;1.40;;;17.80;99.90;;;;;;6529847;22;20220;-85
2024/05/06 12:36:14;;;;;;;1.53;1.43;;;17.60;99.90;;;;;;6484906;22;20231;-85
2024/05/06 12:38:42;;;;;;;1.57;1.47;;;17.50;99.90;;;;;;6527776;22;20263;-85
2024/05/06 12:41:12;;;;;;;1.60;1.50;;;17.10;99.90;;;;;;6484965;22;20228;-85
2024/05/06 12:43:41;;;;;;;1.90;1.70;;;16.80;99.90;;;;;;6485008;22;20320;-85
2024/05/06 12:46:12;;;;;;;1.73;1.63;;;16.60;99.90;;;;;;6529403;22;20216;-85
2024/05/06 12:48:41;;;;;;;2.00;1.70;;;16.50;99.90;;;;;;6529627;22;20216;-85
2024/05/06 12:51:09;;;;;;;1.73;1.63;;;16.50;99.90;;;;;;6484554;22;20232;-85
2024/05/06 12:53:38;;;;;;;1.83;1.73;;;16.30;99.90;;;;;;6484518;22;20227;-85
2024/05/06 12:56:07;;;;;;;2.27;1.73;;;16.00;99.90;;;;;;6484686;22;20322;-85
2024/05/06 12:58:36;;;;;;;2.10;1.90;;;16.10;99.90;;;;;;6484638;22;20224;-85
2024/05/06 13:01:04;;;;;;;1.87;1.73;;;16.00;99.90;;;;;;6502192;21;20274;-85